sensor_id;sensor_type;location;lat;lon;timestamp;pressure;altitude;pressure_sealevel;temperature;humidity
76024;BME280;64719;52.124;6.226;2023-02-15T00:02:21;103069.34;;;-0.42;100.00
76024;BME280;64719;52.124;6.226;2023-02-15T00:04:49;103074.47;;;-0.39;100.00
76024;BME280;64719;52.124;6.226;2023-02-15T00:07:17;103072.66;;;-0.51;100.00
76024;BME280;64719;52.124;6.226;2023-02-15T00:09:44;103077.47;;;-0.56;100.00
76024;BME280;64719;52.124;6.226;2023-02-15T00:12:11;103067.84;;;-0.59;100.00
76024;BME280;64719;52.124;6.226;2023-02-15T00:14:37;103066.91;;;-0.58;100.00
76024;BME280;64719;52.124;6.226;2023-02-15T00:17:05;103062.19;;;-0.54;100.00
76024;BME280;64719;52.124;6.226;2023-02-15T00:19:32;103053.47;;;-0.56;100.00
76024;BME280;64719;52.124;6.226;2023-02-15T00:21:59;103042.06;;;-0.58;100.00
76024;BME280;64719;52.124;6.226;2023-02-15T00:24:25;103044.94;;;-0.61;100.00
76024;BME280;64719;52.124;6.226;2023-02-15T00:26:52;103046.19;;;-0.54;100.00
76024;BME280;64719;52.124;6.226;2023-02-15T00:29:19;103043.84;;;-0.59;100.00
76024;BME280;64719;52.124;6.226;2023-02-15T00:31:46;103044.72;;;-0.58;100.00
76024;BME280;64719;52.124;6.226;2023-02-15T00:34:16;103036.38;;;-0.66;100.00
76024;BME280;64719;52.124;6.226;2023-02-15T00:36:43;103034.47;;;-0.64;100.00
76024;BME280;64719;52.124;6.226;2023-02-15T00:39:10;103031.59;;;-0.61;100.00
76024;BME280;64719;52.124;6.226;2023-02-15T00:41:38;103029.34;;;-0.80;100.00
76024;BME280;64719;52.124;6.226;2023-02-15T00:44:05;103033.38;;;-0.87;100.00
76024;BME280;64719;52.124;6.226;2023-02-15T00:46:32;103038.75;;;-0.74;100.00
76024;BME280;64719;52.124;6.226;2023-02-15T00:51:32;103042.47;;;-0.89;100.00
76024;BME280;64719;52.124;6.226;2023-02-15T00:53:59;103043.59;;;-0.93;100.00
76024;BME280;64719;52.124;6.226;2023-02-15T00:56:25;103045.28;;;-1.05;100.00
76024;BME280;64719;52.124;6.226;2023-02-15T00:58:53;103044.47;;;-0.93;100.00
76024;BME280;64719;52.124;6.226;2023-02-15T01:01:20;103044.97;;;-1.00;100.00
76024;BME280;64719;52.124;6.226;2023-02-15T01:03:48;103048.50;;;-1.00;100.00
76024;BME280;64719;52.124;6.226;2023-02-15T01:06:16;103049.84;;;-1.07;100.00
76024;BME280;64719;52.124;6.226;2023-02-15T01:08:44;103042.06;;;-1.10;100.00
76024;BME280;64719;52.124;6.226;2023-02-15T01:11:14;103042.06;;;-1.10;100.00
76024;BME280;64719;52.124;6.226;2023-02-15T01:13:41;103035.78;;;-1.21;100.00
76024;BME280;64719;52.124;6.226;2023-02-15T01:16:08;103029.16;;;-1.16;100.00
76024;BME280;64719;52.124;6.226;2023-02-15T01:18:36;103032.06;;;-1.06;100.00
76024;BME280;64719;52.124;6.226;2023-02-15T01:21:10;103035.47;;;-1.17;100.00
76024;BME280;64719;52.124;6.226;2023-02-15T01:23:36;103028.75;;;-1.10;100.00
76024;BME280;64719;52.124;6.226;2023-02-15T01:26:04;103029.38;;;-1.19;100.00
76024;BME280;64719;52.124;6.226;2023-02-15T01:28:31;103014.78;;;-1.26;100.00
76024;BME280;64719;52.124;6.226;2023-02-15T01:30:58;103019.69;;;-1.20;100.00
76024;BME280;64719;52.124;6.226;2023-02-15T01:33:25;103012.88;;;-1.11;100.00
76024;BME280;64719;52.124;6.226;2023-02-15T01:35:56;103008.53;;;-0.87;100.00
76024;BME280;64719;52.124;6.226;2023-02-15T01:38:22;103000.16;;;-0.94;100.00
76024;BME280;64719;52.124;6.226;2023-02-15T01:40:50;102999.16;;;-0.93;100.00
76024;BME280;64719;52.124;6.226;2023-02-15T01:43:18;102995.22;;;-1.12;100.00
76024;BME280;64719;52.124;6.226;2023-02-15T01:45:45;102993.59;;;-1.02;100.00
76024;BME280;64719;52.124;6.226;2023-02-15T01:48:19;102995.56;;;-1.04;100.00
76024;BME280;64719;52.124;6.226;2023-02-15T01:50:50;102992.84;;;-1.17;100.00
76024;BME280;64719;52.124;6.226;2023-02-15T01:53:20;102984.66;;;-1.14;100.00
76024;BME280;64719;52.124;6.226;2023-02-15T01:55:50;102980.88;;;-1.36;100.00
76024;BME280;64719;52.124;6.226;2023-02-15T01:58:20;102984.28;;;-1.34;100.00
76024;BME280;64719;52.124;6.226;2023-02-15T02:00:47;102984.47;;;-1.37;100.00
76024;BME280;64719;52.124;6.226;2023-02-15T02:03:14;102979.81;;;-1.34;100.00
76024;BME280;64719;52.124;6.226;2023-02-15T02:05:41;102978.00;;;-1.33;100.00
76024;BME280;64719;52.124;6.226;2023-02-15T02:08:08;102975.25;;;-1.32;100.00
76024;BME280;64719;52.124;6.226;2023-02-15T02:10:35;102981.28;;;-1.42;100.00
76024;BME280;64719;52.124;6.226;2023-02-15T02:13:05;102972.06;;;-1.24;100.00
76024;BME280;64719;52.124;6.226;2023-02-15T02:15:40;102973.13;;;-1.27;100.00
76024;BME280;64719;52.124;6.226;2023-02-15T02:18:22;102968.94;;;-1.31;100.00
76024;BME280;64719;52.124;6.226;2023-02-15T02:21:06;102960.09;;;-1.44;100.00
76024;BME280;64719;52.124;6.226;2023-02-15T02:23:49;102970.56;;;-1.28;100.00
76024;BME280;64719;52.124;6.226;2023-02-15T02:29:48;102958.63;;;-1.35;100.00
76024;BME280;64719;52.124;6.226;2023-02-15T02:33:03;102963.06;;;-1.36;100.00
76024;BME280;64719;52.124;6.226;2023-02-15T02:35:38;102957.34;;;-1.42;100.00
76024;BME280;64719;52.124;6.226;2023-02-15T02:38:10;102954.53;;;-1.53;100.00
76024;BME280;64719;52.124;6.226;2023-02-15T02:40:45;102956.88;;;-1.49;100.00
76024;BME280;64719;52.124;6.226;2023-02-15T02:43:21;102951.50;;;-1.61;100.00
76024;BME280;64719;52.124;6.226;2023-02-15T02:45:53;102947.16;;;-1.62;100.00
76024;BME280;64719;52.124;6.226;2023-02-15T02:48:25;102948.13;;;-1.63;100.00
76024;BME280;64719;52.124;6.226;2023-02-15T02:50:54;102947.72;;;-1.57;100.00
76024;BME280;64719;52.124;6.226;2023-02-15T02:53:20;102944.31;;;-1.47;100.00
76024;BME280;64719;52.124;6.226;2023-02-15T02:55:50;102943.81;;;-1.39;100.00
76024;BME280;64719;52.124;6.226;2023-02-15T02:58:22;102939.88;;;-1.34;100.00
76024;BME280;64719;52.124;6.226;2023-02-15T03:00:54;102936.59;;;-1.25;100.00
76024;BME280;64719;52.124;6.226;2023-02-15T03:03:26;102944.13;;;-1.44;100.00
76024;BME280;64719;52.124;6.226;2023-02-15T03:05:57;102937.06;;;-1.45;100.00
76024;BME280;64719;52.124;6.226;2023-02-15T03:08:27;102941.56;;;-1.45;100.00
76024;BME280;64719;52.124;6.226;2023-02-15T03:10:59;102921.97;;;-1.44;100.00
76024;BME280;64719;52.124;6.226;2023-02-15T03:13:27;102928.13;;;-1.56;100.00
76024;BME280;64719;52.124;6.226;2023-02-15T03:15:55;102922.44;;;-1.64;100.00
76024;BME280;64719;52.124;6.226;2023-02-15T03:18:44;102919.16;;;-1.68;100.00
76024;BME280;64719;52.124;6.226;2023-02-15T03:21:19;102925.88;;;-1.62;100.00
76024;BME280;64719;52.124;6.226;2023-02-15T03:23:50;102922.25;;;-1.61;100.00
76024;BME280;64719;52.124;6.226;2023-02-15T03:26:20;102917.44;;;-1.69;100.00
76024;BME280;64719;52.124;6.226;2023-02-15T03:28:49;102918.03;;;-1.78;100.00
76024;BME280;64719;52.124;6.226;2023-02-15T03:31:17;102911.78;;;-1.77;100.00
76024;BME280;64719;52.124;6.226;2023-02-15T03:33:52;102911.56;;;-1.74;100.00
76024;BME280;64719;52.124;6.226;2023-02-15T03:36:22;102901.88;;;-1.75;100.00
76024;BME280;64719;52.124;6.226;2023-02-15T03:38:56;102911.03;;;-1.79;100.00
76024;BME280;64719;52.124;6.226;2023-02-15T03:41:26;102905.91;;;-1.82;100.00
76024;BME280;64719;52.124;6.226;2023-02-15T03:43:57;102903.50;;;-1.72;100.00
76024;BME280;64719;52.124;6.226;2023-02-15T03:46:29;102902.53;;;-1.71;100.00
76024;BME280;64719;52.124;6.226;2023-02-15T03:49:02;102900.94;;;-1.74;100.00
76024;BME280;64719;52.124;6.226;2023-02-15T03:51:33;102900.84;;;-1.72;100.00
76024;BME280;64719;52.124;6.226;2023-02-15T03:54:03;102900.84;;;-1.72;100.00
76024;BME280;64719;52.124;6.226;2023-02-15T03:56:30;102902.63;;;-1.73;100.00
76024;BME280;64719;52.124;6.226;2023-02-15T03:58:58;102903.50;;;-1.72;100.00
76024;BME280;64719;52.124;6.226;2023-02-15T04:01:47;102896.78;;;-1.65;100.00
76024;BME280;64719;52.124;6.226;2023-02-15T04:04:28;102891.22;;;-1.75;100.00
76024;BME280;64719;52.124;6.226;2023-02-15T04:06:55;102893.78;;;-1.73;100.00
76024;BME280;64719;52.124;6.226;2023-02-15T04:09:22;102898.28;;;-1.74;100.00
76024;BME280;64719;52.124;6.226;2023-02-15T04:12:03;102892.44;;;-1.66;100.00
76024;BME280;64719;52.124;6.226;2023-02-15T04:14:29;102883.03;;;-1.72;100.00
76024;BME280;64719;52.124;6.226;2023-02-15T04:17:13;102895.94;;;-1.66;100.00
76024;BME280;64719;52.124;6.226;2023-02-15T04:19:41;102887.38;;;-1.83;100.00
76024;BME280;64719;52.124;6.226;2023-02-15T04:22:25;102887.06;;;-1.79;100.00
76024;BME280;64719;52.124;6.226;2023-02-15T04:25:09;102884.28;;;-1.90;100.00
76024;BME280;64719;52.124;6.226;2023-02-15T04:27:37;102885.38;;;-1.80;100.00
76024;BME280;64719;52.124;6.226;2023-02-15T04:30:04;102879.56;;;-1.72;100.00
76024;BME280;64719;52.124;6.226;2023-02-15T04:32:31;102879.03;;;-1.65;100.00
76024;BME280;64719;52.124;6.226;2023-02-15T04:34:59;102878.38;;;-1.68;100.00
76024;BME280;64719;52.124;6.226;2023-02-15T04:37:26;102878.59;;;-1.71;100.00
76024;BME280;64719;52.124;6.226;2023-02-15T04:39:52;102876.13;;;-1.74;100.00
76024;BME280;64719;52.124;6.226;2023-02-15T04:42:19;102865.59;;;-1.76;100.00
76024;BME280;64719;52.124;6.226;2023-02-15T04:44:45;102870.41;;;-1.68;100.00
76024;BME280;64719;52.124;6.226;2023-02-15T04:47:12;102865.13;;;-1.83;100.00
76024;BME280;64719;52.124;6.226;2023-02-15T04:49:38;102868.88;;;-1.85;100.00
76024;BME280;64719;52.124;6.226;2023-02-15T04:52:06;102865.91;;;-1.80;100.00
76024;BME280;64719;52.124;6.226;2023-02-15T04:54:33;102860.31;;;-1.90;100.00
76024;BME280;64719;52.124;6.226;2023-02-15T04:56:59;102867.19;;;-1.73;100.00
76024;BME280;64719;52.124;6.226;2023-02-15T04:59:26;102859.56;;;-1.53;100.00
76024;BME280;64719;52.124;6.226;2023-02-15T05:01:52;102864.97;;;-1.67;100.00
76024;BME280;64719;52.124;6.226;2023-02-15T05:04:19;102862.69;;;-1.86;100.00
76024;BME280;64719;52.124;6.226;2023-02-15T05:06:45;102859.81;;;-1.83;100.00
76024;BME280;64719;52.124;6.226;2023-02-15T05:09:14;102860.69;;;-1.82;100.00
76024;BME280;64719;52.124;6.226;2023-02-15T05:11:41;102857.50;;;-1.74;100.00
76024;BME280;64719;52.124;6.226;2023-02-15T05:14:08;102855.47;;;-1.83;100.00
76024;BME280;64719;52.124;6.226;2023-02-15T05:16:34;102856.84;;;-1.91;100.00
76024;BME280;64719;52.124;6.226;2023-02-15T05:19:01;102861.09;;;-1.88;100.00
76024;BME280;64719;52.124;6.226;2023-02-15T05:21:27;102867.38;;;-1.89;100.00
76024;BME280;64719;52.124;6.226;2023-02-15T05:23:54;102854.06;;;-1.89;100.00
76024;BME280;64719;52.124;6.226;2023-02-15T05:26:24;102859.09;;;-1.84;100.00
76024;BME280;64719;52.124;6.226;2023-02-15T05:29:08;102854.69;;;-1.86;100.00
76024;BME280;64719;52.124;6.226;2023-02-15T05:31:35;102851.53;;;-1.91;100.00
76024;BME280;64719;52.124;6.226;2023-02-15T05:34:02;102854.13;;;-2.03;100.00
76024;BME280;64719;52.124;6.226;2023-02-15T05:36:29;102852.63;;;-2.07;100.00
76024;BME280;64719;52.124;6.226;2023-02-15T05:38:55;102848.50;;;-1.99;100.00
76024;BME280;64719;52.124;6.226;2023-02-15T05:41:23;102848.41;;;-1.97;100.00
76024;BME280;64719;52.124;6.226;2023-02-15T05:43:50;102848.41;;;-1.97;100.00
76024;BME280;64719;52.124;6.226;2023-02-15T05:46:17;102837.66;;;-1.96;100.00
76024;BME280;64719;52.124;6.226;2023-02-15T05:48:43;102846.25;;;-2.05;100.00
76024;BME280;64719;52.124;6.226;2023-02-15T05:51:12;102841.50;;;-2.00;100.00
76024;BME280;64719;52.124;6.226;2023-02-15T05:53:40;102839.03;;;-2.03;100.00
76024;BME280;64719;52.124;6.226;2023-02-15T05:56:11;102846.06;;;-2.02;100.00
76024;BME280;64719;52.124;6.226;2023-02-15T05:58:40;102848.09;;;-1.93;100.00
76024;BME280;64719;52.124;6.226;2023-02-15T06:01:08;102843.53;;;-1.91;100.00
76024;BME280;64719;52.124;6.226;2023-02-15T06:03:35;102843.47;;;-1.64;100.00
76024;BME280;64719;52.124;6.226;2023-02-15T06:06:01;102840.59;;;-1.61;100.00
76024;BME280;64719;52.124;6.226;2023-02-15T06:08:29;102848.78;;;-1.64;100.00
76024;BME280;64719;52.124;6.226;2023-02-15T06:10:56;102848.75;;;-1.76;100.00
76024;BME280;64719;52.124;6.226;2023-02-15T06:13:23;102844.09;;;-1.73;100.00
76024;BME280;64719;52.124;6.226;2023-02-15T06:15:50;102845.81;;;-1.59;100.00
76024;BME280;64719;52.124;6.226;2023-02-15T06:18:17;102843.78;;;-1.68;100.00
76024;BME280;64719;52.124;6.226;2023-02-15T06:20:45;102853.88;;;-1.73;100.00
76024;BME280;64719;52.124;6.226;2023-02-15T06:23:11;102854.28;;;-1.79;100.00
76024;BME280;64719;52.124;6.226;2023-02-15T06:25:38;102842.31;;;-1.72;100.00
76024;BME280;64719;52.124;6.226;2023-02-15T06:28:05;102848.63;;;-1.48;100.00
76024;BME280;64719;52.124;6.226;2023-02-15T06:30:31;102849.03;;;-1.54;100.00
76024;BME280;64719;52.124;6.226;2023-02-15T06:33:00;102851.13;;;-1.72;100.00
76024;BME280;64719;52.124;6.226;2023-02-15T06:35:26;102856.44;;;-1.72;100.00
76024;BME280;64719;52.124;6.226;2023-02-15T06:37:53;102855.72;;;-1.74;100.00
76024;BME280;64719;52.124;6.226;2023-02-15T06:40:19;102852.72;;;-1.69;100.00
76024;BME280;64719;52.124;6.226;2023-02-15T06:42:46;102850.94;;;-1.56;100.00
76024;BME280;64719;52.124;6.226;2023-02-15T06:45:12;102851.59;;;-1.53;100.00
76024;BME280;64719;52.124;6.226;2023-02-15T06:47:39;102857.22;;;-1.57;100.00
76024;BME280;64719;52.124;6.226;2023-02-15T06:50:08;102849.88;;;-1.41;100.00
76024;BME280;64719;52.124;6.226;2023-02-15T06:52:35;102843.72;;;-1.29;100.00
76024;BME280;64719;52.124;6.226;2023-02-15T06:55:02;102843.50;;;-1.26;100.00
76024;BME280;64719;52.124;6.226;2023-02-15T06:57:29;102839.78;;;-1.24;100.00
76024;BME280;64719;52.124;6.226;2023-02-15T06:59:55;102841.91;;;-1.29;100.00
76024;BME280;64719;52.124;6.226;2023-02-15T07:02:23;102840.41;;;-1.33;100.00
76024;BME280;64719;52.124;6.226;2023-02-15T07:04:50;102837.84;;;-1.22;100.00
76024;BME280;64719;52.124;6.226;2023-02-15T07:07:18;102829.75;;;-1.20;100.00
76024;BME280;64719;52.124;6.226;2023-02-15T07:09:45;102846.94;;;-1.12;100.00
76024;BME280;64719;52.124;6.226;2023-02-15T07:12:11;102841.38;;;-1.09;100.00
76024;BME280;64719;52.124;6.226;2023-02-15T07:14:55;102839.34;;;-1.05;100.00
76024;BME280;64719;52.124;6.226;2023-02-15T07:17:23;102835.59;;;-0.90;100.00
76024;BME280;64719;52.124;6.226;2023-02-15T07:19:53;102827.66;;;-0.67;100.00
76024;BME280;64719;52.124;6.226;2023-02-15T07:22:21;102826.81;;;-0.44;100.00
76024;BME280;64719;52.124;6.226;2023-02-15T07:24:48;102833.00;;;-0.43;100.00
76024;BME280;64719;52.124;6.226;2023-02-15T07:27:14;102826.78;;;-0.31;100.00
76024;BME280;64719;52.124;6.226;2023-02-15T07:29:41;102830.47;;;-0.21;100.00
76024;BME280;64719;52.124;6.226;2023-02-15T07:32:07;102821.06;;;-0.14;100.00
76024;BME280;64719;52.124;6.226;2023-02-15T07:34:34;102824.38;;;0.00;100.00
76024;BME280;64719;52.124;6.226;2023-02-15T07:37:00;102823.22;;;0.16;100.00
76024;BME280;64719;52.124;6.226;2023-02-15T07:39:28;102820.47;;;0.28;100.00
76024;BME280;64719;52.124;6.226;2023-02-15T07:41:55;102811.81;;;0.48;100.00
76024;BME280;64719;52.124;6.226;2023-02-15T07:44:21;102807.94;;;0.63;100.00
76024;BME280;64719;52.124;6.226;2023-02-15T07:46:48;102804.91;;;0.90;100.00
76024;BME280;64719;52.124;6.226;2023-02-15T07:49:14;102804.63;;;2.52;99.88
76024;BME280;64719;52.124;6.226;2023-02-15T07:51:41;102801.72;;;3.83;96.56
76024;BME280;64719;52.124;6.226;2023-02-15T07:54:08;102804.28;;;3.95;94.38
76024;BME280;64719;52.124;6.226;2023-02-15T07:56:35;102802.72;;;4.21;91.77
76024;BME280;64719;52.124;6.226;2023-02-15T07:59:02;102802.47;;;5.43;88.93
76024;BME280;64719;52.124;6.226;2023-02-15T08:01:31;102800.44;;;5.99;83.02
76024;BME280;64719;52.124;6.226;2023-02-15T08:03:58;102799.88;;;6.56;79.00
76024;BME280;64719;52.124;6.226;2023-02-15T08:06:27;102808.03;;;7.65;75.00
76024;BME280;64719;52.124;6.226;2023-02-15T08:08:53;102796.31;;;8.46;72.99
76024;BME280;64719;52.124;6.226;2023-02-15T08:11:21;102801.00;;;8.04;73.38
76024;BME280;64719;52.124;6.226;2023-02-15T08:13:54;102785.31;;;8.16;70.99
76024;BME280;64719;52.124;6.226;2023-02-15T08:16:26;102787.00;;;8.65;71.48
76024;BME280;64719;52.124;6.226;2023-02-15T08:18:53;102792.00;;;10.00;69.22
76024;BME280;64719;52.124;6.226;2023-02-15T08:21:21;102788.16;;;10.91;67.84
76024;BME280;64719;52.124;6.226;2023-02-15T08:23:48;102779.81;;;10.41;62.03
76024;BME280;64719;52.124;6.226;2023-02-15T08:26:14;102778.03;;;10.85;64.69
76024;BME280;64719;52.124;6.226;2023-02-15T08:28:42;102775.88;;;10.66;61.22
76024;BME280;64719;52.124;6.226;2023-02-15T08:31:11;102770.50;;;10.58;62.65
76024;BME280;64719;52.124;6.226;2023-02-15T08:33:39;102772.94;;;10.53;62.87
76024;BME280;64719;52.124;6.226;2023-02-15T08:36:08;102777.88;;;11.16;59.65
76024;BME280;64719;52.124;6.226;2023-02-15T08:38:35;102776.44;;;10.76;63.60
76024;BME280;64719;52.124;6.226;2023-02-15T08:41:12;102781.41;;;11.31;59.59
76024;BME280;64719;52.124;6.226;2023-02-15T08:43:39;102777.22;;;10.47;61.00
76024;BME280;64719;52.124;6.226;2023-02-15T08:46:06;102773.59;;;11.42;60.61
76024;BME280;64719;52.124;6.226;2023-02-15T08:48:34;102779.44;;;12.31;57.75
76024;BME280;64719;52.124;6.226;2023-02-15T08:51:05;102764.13;;;12.30;57.38
76024;BME280;64719;52.124;6.226;2023-02-15T08:53:32;102763.69;;;12.27;57.27
76024;BME280;64719;52.124;6.226;2023-02-15T08:55:59;102759.91;;;11.36;57.26
76024;BME280;64719;52.124;6.226;2023-02-15T08:58:25;102752.72;;;11.78;57.36
76024;BME280;64719;52.124;6.226;2023-02-15T09:00:52;102750.16;;;12.12;55.68
76024;BME280;64719;52.124;6.226;2023-02-15T09:03:18;102748.28;;;11.56;56.71
76024;BME280;64719;52.124;6.226;2023-02-15T09:05:46;102752.09;;;11.11;56.65
76024;BME280;64719;52.124;6.226;2023-02-15T09:08:13;102750.34;;;11.69;56.74
76024;BME280;64719;52.124;6.226;2023-02-15T09:10:39;102743.16;;;12.24;55.74
76024;BME280;64719;52.124;6.226;2023-02-15T09:13:06;102744.16;;;12.23;55.34
76024;BME280;64719;52.124;6.226;2023-02-15T09:15:32;102745.69;;;13.69;51.63
76024;BME280;64719;52.124;6.226;2023-02-15T09:17:59;102742.16;;;13.28;51.87
76024;BME280;64719;52.124;6.226;2023-02-15T09:20:31;102741.41;;;14.26;49.68
76024;BME280;64719;52.124;6.226;2023-02-15T09:22:59;102750.81;;;14.69;48.93
76024;BME280;64719;52.124;6.226;2023-02-15T09:25:26;102752.84;;;15.70;46.90
76024;BME280;64719;52.124;6.226;2023-02-15T09:27:52;102749.44;;;15.24;48.42
76024;BME280;64719;52.124;6.226;2023-02-15T09:30:19;102747.19;;;15.65;47.00
76024;BME280;64719;52.124;6.226;2023-02-15T09:32:46;102746.59;;;14.87;46.97
76024;BME280;64719;52.124;6.226;2023-02-15T09:35:13;102756.69;;;15.63;48.23
76024;BME280;64719;52.124;6.226;2023-02-15T09:37:40;102751.78;;;15.14;48.56
76024;BME280;64719;52.124;6.226;2023-02-15T09:40:08;102753.41;;;15.35;49.02
76024;BME280;64719;52.124;6.226;2023-02-15T09:42:58;102751.44;;;15.55;46.53
76024;BME280;64719;52.124;6.226;2023-02-15T09:45:45;102747.56;;;16.31;45.36
76024;BME280;64719;52.124;6.226;2023-02-15T09:48:29;102754.28;;;15.22;46.83
76024;BME280;64719;52.124;6.226;2023-02-15T09:51:13;102750.56;;;16.54;46.11
76024;BME280;64719;52.124;6.226;2023-02-15T09:53:56;102744.84;;;15.18;45.68
76024;BME280;64719;52.124;6.226;2023-02-15T09:56:31;102745.13;;;15.54;46.67
76024;BME280;64719;52.124;6.226;2023-02-15T09:59:09;102728.97;;;14.76;48.21
76024;BME280;64719;52.124;6.226;2023-02-15T10:01:44;102741.56;;;15.91;47.32
76024;BME280;64719;52.124;6.226;2023-02-15T10:04:25;102732.63;;;13.58;50.07
76024;BME280;64719;52.124;6.226;2023-02-15T10:07:03;102739.22;;;14.94;49.54
76024;BME280;64719;52.124;6.226;2023-02-15T10:09:48;102740.44;;;15.11;48.03
76024;BME280;64719;52.124;6.226;2023-02-15T10:12:32;102736.28;;;16.21;45.58
76024;BME280;64719;52.124;6.226;2023-02-15T10:15:26;102736.34;;;17.06;43.80
76024;BME280;64719;52.124;6.226;2023-02-15T10:18:29;102737.03;;;16.84;44.53
76024;BME280;64719;52.124;6.226;2023-02-15T10:21:04;102734.22;;;16.41;45.69
76024;BME280;64719;52.124;6.226;2023-02-15T10:23:58;102731.66;;;16.46;45.31
76024;BME280;64719;52.124;6.226;2023-02-15T10:26:29;102723.53;;;16.82;44.44
76024;BME280;64719;52.124;6.226;2023-02-15T10:29:03;102727.78;;;16.96;43.23
76024;BME280;64719;52.124;6.226;2023-02-15T10:31:37;102723.72;;;16.38;44.61
76024;BME280;64719;52.124;6.226;2023-02-15T10:34:14;102737.69;;;15.68;45.70
76024;BME280;64719;52.124;6.226;2023-02-15T10:39:47;102727.41;;;16.25;46.32
76024;BME280;64719;52.124;6.226;2023-02-15T10:42:25;102727.94;;;15.78;44.60
76024;BME280;64719;52.124;6.226;2023-02-15T10:45:09;102732.44;;;16.28;45.39
76024;BME280;64719;52.124;6.226;2023-02-15T10:47:49;102728.69;;;17.92;43.26
76024;BME280;64719;52.124;6.226;2023-02-15T10:50:32;102724.94;;;18.27;39.63
76024;BME280;64719;52.124;6.226;2023-02-15T10:53:13;102732.16;;;18.86;38.84
76024;BME280;64719;52.124;6.226;2023-02-15T10:55:52;102732.31;;;19.42;38.85
76024;BME280;64719;52.124;6.226;2023-02-15T10:58:29;102727.84;;;18.79;40.15
76024;BME280;64719;52.124;6.226;2023-02-15T11:01:05;102722.13;;;18.92;39.38
76024;BME280;64719;52.124;6.226;2023-02-15T11:03:54;102723.63;;;18.30;39.74
76024;BME280;64719;52.124;6.226;2023-02-15T11:06:26;102724.66;;;18.06;40.73
76024;BME280;64719;52.124;6.226;2023-02-15T11:08:56;102725.63;;;16.62;43.64
76024;BME280;64719;52.124;6.226;2023-02-15T11:11:27;102717.16;;;16.39;45.05
76024;BME280;64719;52.124;6.226;2023-02-15T11:13:59;102714.75;;;16.00;45.20
76024;BME280;64719;52.124;6.226;2023-02-15T11:16:31;102713.25;;;16.28;45.59
76024;BME280;64719;52.124;6.226;2023-02-15T11:19:01;102707.84;;;16.47;45.25
76024;BME280;64719;52.124;6.226;2023-02-15T11:21:32;102696.53;;;16.61;44.46
76024;BME280;64719;52.124;6.226;2023-02-15T11:24:10;102699.00;;;16.87;44.93
76024;BME280;64719;52.124;6.226;2023-02-15T11:26:39;102694.13;;;16.71;44.60
76024;BME280;64719;52.124;6.226;2023-02-15T11:29:10;102692.63;;;16.51;45.37
76024;BME280;64719;52.124;6.226;2023-02-15T11:31:44;102698.34;;;15.93;46.17
76024;BME280;64719;52.124;6.226;2023-02-15T11:34:15;102690.03;;;16.31;45.82
76024;BME280;64719;52.124;6.226;2023-02-15T11:36:44;102696.16;;;15.46;48.11
76024;BME280;64719;52.124;6.226;2023-02-15T11:39:16;102688.19;;;14.81;49.94
76024;BME280;64719;52.124;6.226;2023-02-15T11:41:46;102692.03;;;14.28;53.12
76024;BME280;64719;52.124;6.226;2023-02-15T11:44:21;102679.94;;;13.44;53.72
76024;BME280;64719;52.124;6.226;2023-02-15T11:46:50;102674.75;;;13.82;53.26
76024;BME280;64719;52.124;6.226;2023-02-15T11:49:29;102677.66;;;13.61;52.84
76024;BME280;64719;52.124;6.226;2023-02-15T11:51:57;102675.69;;;12.81;55.61
76024;BME280;64719;52.124;6.226;2023-02-15T11:54:28;102675.56;;;12.62;56.34
76024;BME280;64719;52.124;6.226;2023-02-15T11:56:56;102676.59;;;12.61;56.73
76024;BME280;64719;52.124;6.226;2023-02-15T11:59:29;102674.19;;;13.13;54.93
76024;BME280;64719;52.124;6.226;2023-02-15T12:01:59;102670.72;;;13.52;54.50
76024;BME280;64719;52.124;6.226;2023-02-15T12:04:30;102660.03;;;13.57;53.80
76024;BME280;64719;52.124;6.226;2023-02-15T12:06:59;102652.91;;;14.60;50.88
76024;BME280;64719;52.124;6.226;2023-02-15T12:09:33;102645.59;;;13.82;52.74
76024;BME280;64719;52.124;6.226;2023-02-15T12:12:19;102647.06;;;14.11;51.79
76024;BME280;64719;52.124;6.226;2023-02-15T12:14:48;102631.13;;;13.75;51.70
76024;BME280;64719;52.124;6.226;2023-02-15T12:17:17;102636.75;;;13.61;52.84
76024;BME280;64719;52.124;6.226;2023-02-15T12:19:44;102639.25;;;13.36;53.76
76024;BME280;64719;52.124;6.226;2023-02-15T12:22:21;102634.63;;;13.43;52.41
76024;BME280;64719;52.124;6.226;2023-02-15T12:24:50;102631.81;;;13.17;53.74
76024;BME280;64719;52.124;6.226;2023-02-15T12:27:19;102626.16;;;13.12;53.04
76024;BME280;64719;52.124;6.226;2023-02-15T12:29:50;102624.56;;;13.50;53.16
76024;BME280;64719;52.124;6.226;2023-02-15T12:32:22;102618.91;;;13.91;52.05
76024;BME280;64719;52.124;6.226;2023-02-15T12:34:51;102613.47;;;14.94;50.22
76024;BME280;64719;52.124;6.226;2023-02-15T12:37:21;102618.41;;;15.85;47.75
76024;BME280;64719;52.124;6.226;2023-02-15T12:39:54;102605.38;;;15.12;47.23
76024;BME280;64719;52.124;6.226;2023-02-15T12:42:21;102614.75;;;14.85;48.90
76024;BME280;64719;52.124;6.226;2023-02-15T12:44:58;102599.13;;;15.05;47.55
76024;BME280;64719;52.124;6.226;2023-02-15T12:47:27;102600.41;;;15.33;46.53
76024;BME280;64719;52.124;6.226;2023-02-15T12:52:26;102602.28;;;16.44;43.97
76024;BME280;64719;52.124;6.226;2023-02-15T12:54:53;102595.25;;;16.48;44.43
76024;BME280;64719;52.124;6.226;2023-02-15T12:57:27;102597.91;;;17.20;42.85
76024;BME280;64719;52.124;6.226;2023-02-15T12:59:56;102587.31;;;17.53;42.58
76024;BME280;64719;52.124;6.226;2023-02-15T13:02:33;102591.22;;;17.98;40.78
76024;BME280;64719;52.124;6.226;2023-02-15T13:05:14;102590.84;;;17.95;40.79
76024;BME280;64719;52.124;6.226;2023-02-15T13:07:45;102590.06;;;17.24;42.35
76024;BME280;64719;52.124;6.226;2023-02-15T13:10:33;102589.56;;;17.45;41.41
76024;BME280;64719;52.124;6.226;2023-02-15T13:13:01;102591.53;;;17.79;40.53
76024;BME280;64719;52.124;6.226;2023-02-15T13:15:35;102587.31;;;17.53;41.76